sensor_id;sensor_type;location;lat;lon;timestamp;temperature;humidity
45785;DHT22;31489;51.404;5.474;2022-08-07T00:01:06;21.50;48.80
45785;DHT22;31489;51.404;5.474;2022-08-07T00:03:33;21.50;48.90
45785;DHT22;31489;51.404;5.474;2022-08-07T00:05:59;21.50;49.00
45785;DHT22;31489;51.404;5.474;2022-08-07T00:08:25;21.40;48.90
45785;DHT22;31489;51.404;5.474;2022-08-07T00:10:51;21.40;48.90
45785;DHT22;31489;51.404;5.474;2022-08-07T00:13:18;21.40;49.10
45785;DHT22;31489;51.404;5.474;2022-08-07T00:15:45;21.40;49.20
45785;DHT22;31489;51.404;5.474;2022-08-07T00:18:15;21.30;49.20
45785;DHT22;31489;51.404;5.474;2022-08-07T00:20:41;21.30;49.30
45785;DHT22;31489;51.404;5.474;2022-08-07T00:23:07;21.30;49.30
45785;DHT22;31489;51.404;5.474;2022-08-07T00:25:33;21.30;49.20
45785;DHT22;31489;51.404;5.474;2022-08-07T00:27:59;21.20;49.30
45785;DHT22;31489;51.404;5.474;2022-08-07T00:30:25;21.20;49.60
45785;DHT22;31489;51.404;5.474;2022-08-07T00:32:51;21.20;49.70
45785;DHT22;31489;51.404;5.474;2022-08-07T00:35:18;21.20;49.80
45785;DHT22;31489;51.404;5.474;2022-08-07T00:37:44;21.20;49.80
45785;DHT22;31489;51.404;5.474;2022-08-07T00:40:12;21.10;49.80
45785;DHT22;31489;51.404;5.474;2022-08-07T00:42:38;21.10;49.90
45785;DHT22;31489;51.404;5.474;2022-08-07T00:45:07;21.10;50.00
45785;DHT22;31489;51.404;5.474;2022-08-07T00:47:33;21.00;50.10
45785;DHT22;31489;51.404;5.474;2022-08-07T00:50:00;21.00;50.00
45785;DHT22;31489;51.404;5.474;2022-08-07T00:52:26;21.00;50.10
45785;DHT22;31489;51.404;5.474;2022-08-07T00:54:52;21.00;50.00
45785;DHT22;31489;51.404;5.474;2022-08-07T00:57:21;21.00;50.10
45785;DHT22;31489;51.404;5.474;2022-08-07T00:59:47;20.90;50.30
45785;DHT22;31489;51.404;5.474;2022-08-07T01:02:12;20.90;50.40
45785;DHT22;31489;51.404;5.474;2022-08-07T01:04:39;20.90;50.30
45785;DHT22;31489;51.404;5.474;2022-08-07T01:07:05;20.90;50.50
45785;DHT22;31489;51.404;5.474;2022-08-07T01:09:31;20.80;50.50
45785;DHT22;31489;51.404;5.474;2022-08-07T01:11:58;20.80;50.50
45785;DHT22;31489;51.404;5.474;2022-08-07T01:14:24;20.80;50.70
45785;DHT22;31489;51.404;5.474;2022-08-07T01:16:52;20.70;50.80
45785;DHT22;31489;51.404;5.474;2022-08-07T01:19:19;20.70;50.80
45785;DHT22;31489;51.404;5.474;2022-08-07T01:21:48;20.70;50.90
45785;DHT22;31489;51.404;5.474;2022-08-07T01:24:16;20.60;51.10
45785;DHT22;31489;51.404;5.474;2022-08-07T01:26:42;20.60;51.00
45785;DHT22;31489;51.404;5.474;2022-08-07T01:29:07;20.60;51.10
45785;DHT22;31489;51.404;5.474;2022-08-07T01:31:33;20.50;51.00
45785;DHT22;31489;51.404;5.474;2022-08-07T01:34:00;20.50;51.20
45785;DHT22;31489;51.404;5.474;2022-08-07T01:36:28;20.50;51.30
45785;DHT22;31489;51.404;5.474;2022-08-07T01:38:54;20.40;51.40
45785;DHT22;31489;51.404;5.474;2022-08-07T01:41:21;20.40;51.50
45785;DHT22;31489;51.404;5.474;2022-08-07T01:43:48;20.40;51.60
45785;DHT22;31489;51.404;5.474;2022-08-07T01:46:15;20.30;51.50
45785;DHT22;31489;51.404;5.474;2022-08-07T01:48:43;20.30;51.80
45785;DHT22;31489;51.404;5.474;2022-08-07T01:51:12;20.30;51.80
45785;DHT22;31489;51.404;5.474;2022-08-07T01:53:43;20.20;52.10
45785;DHT22;31489;51.404;5.474;2022-08-07T01:56:14;20.20;52.10
45785;DHT22;31489;51.404;5.474;2022-08-07T01:58:48;20.20;52.30
45785;DHT22;31489;51.404;5.474;2022-08-07T02:01:21;20.10;52.40
45785;DHT22;31489;51.404;5.474;2022-08-07T02:04:00;20.10;52.30
45785;DHT22;31489;51.404;5.474;2022-08-07T02:06:29;20.10;52.40
45785;DHT22;31489;51.404;5.474;2022-08-07T02:08:59;20.10;52.40
45785;DHT22;31489;51.404;5.474;2022-08-07T02:11:26;20.00;52.50
45785;DHT22;31489;51.404;5.474;2022-08-07T02:13:53;20.00;52.40
45785;DHT22;31489;51.404;5.474;2022-08-07T02:16:21;19.90;52.60
45785;DHT22;31489;51.404;5.474;2022-08-07T02:18:48;19.90;52.70
45785;DHT22;31489;51.404;5.474;2022-08-07T02:21:15;19.90;52.80
45785;DHT22;31489;51.404;5.474;2022-08-07T02:23:42;19.90;52.90
45785;DHT22;31489;51.404;5.474;2022-08-07T02:26:09;19.80;53.00
45785;DHT22;31489;51.404;5.474;2022-08-07T02:28:36;19.80;53.00
45785;DHT22;31489;51.404;5.474;2022-08-07T02:31:04;19.70;53.10
45785;DHT22;31489;51.404;5.474;2022-08-07T02:33:32;19.70;53.30
45785;DHT22;31489;51.404;5.474;2022-08-07T02:35:59;19.70;53.40
45785;DHT22;31489;51.404;5.474;2022-08-07T02:38:32;19.60;53.50
45785;DHT22;31489;51.404;5.474;2022-08-07T02:41:00;19.60;53.90
45785;DHT22;31489;51.404;5.474;2022-08-07T02:43:27;19.50;53.60
45785;DHT22;31489;51.404;5.474;2022-08-07T02:45:56;19.50;53.70
45785;DHT22;31489;51.404;5.474;2022-08-07T02:48:22;19.50;54.10
45785;DHT22;31489;51.404;5.474;2022-08-07T02:50:52;19.50;53.90
45785;DHT22;31489;51.404;5.474;2022-08-07T02:53:23;19.40;54.10
45785;DHT22;31489;51.404;5.474;2022-08-07T02:55:50;19.40;54.40
45785;DHT22;31489;51.404;5.474;2022-08-07T02:58:19;19.40;54.30
45785;DHT22;31489;51.404;5.474;2022-08-07T03:00:49;19.30;54.40
45785;DHT22;31489;51.404;5.474;2022-08-07T03:03:17;19.30;54.60
45785;DHT22;31489;51.404;5.474;2022-08-07T03:05:44;19.20;54.60
45785;DHT22;31489;51.404;5.474;2022-08-07T03:08:11;19.20;54.60
45785;DHT22;31489;51.404;5.474;2022-08-07T03:10:38;19.20;54.80
45785;DHT22;31489;51.404;5.474;2022-08-07T03:13:05;19.20;54.90
45785;DHT22;31489;51.404;5.474;2022-08-07T03:15:31;19.20;55.00
45785;DHT22;31489;51.404;5.474;2022-08-07T03:17:59;19.10;54.90
45785;DHT22;31489;51.404;5.474;2022-08-07T03:20:26;19.10;55.20
45785;DHT22;31489;51.404;5.474;2022-08-07T03:22:52;19.10;55.30
45785;DHT22;31489;51.404;5.474;2022-08-07T03:25:19;19.00;55.30
45785;DHT22;31489;51.404;5.474;2022-08-07T03:27:46;19.00;55.40
45785;DHT22;31489;51.404;5.474;2022-08-07T03:30:13;18.90;55.50
45785;DHT22;31489;51.404;5.474;2022-08-07T03:32:42;18.90;55.60
45785;DHT22;31489;51.404;5.474;2022-08-07T03:35:15;18.90;55.60
45785;DHT22;31489;51.404;5.474;2022-08-07T03:37:43;18.80;55.90
45785;DHT22;31489;51.404;5.474;2022-08-07T03:40:10;18.80;55.80
45785;DHT22;31489;51.404;5.474;2022-08-07T03:42:36;18.80;55.80
45785;DHT22;31489;51.404;5.474;2022-08-07T03:45:03;18.80;55.80
45785;DHT22;31489;51.404;5.474;2022-08-07T03:47:30;18.70;55.90
45785;DHT22;31489;51.404;5.474;2022-08-07T03:49:56;18.70;56.10
45785;DHT22;31489;51.404;5.474;2022-08-07T03:52:27;18.70;56.20
45785;DHT22;31489;51.404;5.474;2022-08-07T03:54:58;18.60;56.40
45785;DHT22;31489;51.404;5.474;2022-08-07T03:57:25;18.60;56.50
45785;DHT22;31489;51.404;5.474;2022-08-07T03:59:53;18.60;56.30
45785;DHT22;31489;51.404;5.474;2022-08-07T04:02:19;18.60;56.50
45785;DHT22;31489;51.404;5.474;2022-08-07T04:04:45;18.60;56.50
45785;DHT22;31489;51.404;5.474;2022-08-07T04:07:11;18.60;56.50
45785;DHT22;31489;51.404;5.474;2022-08-07T04:09:40;18.50;56.60
45785;DHT22;31489;51.404;5.474;2022-08-07T04:12:06;18.50;56.60
45785;DHT22;31489;51.404;5.474;2022-08-07T04:14:33;18.50;56.80
45785;DHT22;31489;51.404;5.474;2022-08-07T04:17:00;18.50;56.90
45785;DHT22;31489;51.404;5.474;2022-08-07T04:19:26;18.40;56.80
45785;DHT22;31489;51.404;5.474;2022-08-07T04:21:52;18.40;56.90
45785;DHT22;31489;51.404;5.474;2022-08-07T04:24:18;18.40;57.00
45785;DHT22;31489;51.404;5.474;2022-08-07T04:26:44;18.40;57.00
45785;DHT22;31489;51.404;5.474;2022-08-07T04:29:10;18.40;57.10
45785;DHT22;31489;51.404;5.474;2022-08-07T04:31:40;18.30;57.10
45785;DHT22;31489;51.404;5.474;2022-08-07T04:34:07;18.30;57.50
45785;DHT22;31489;51.404;5.474;2022-08-07T04:36:33;18.30;57.30
45785;DHT22;31489;51.404;5.474;2022-08-07T04:39:00;18.30;57.30
45785;DHT22;31489;51.404;5.474;2022-08-07T04:41:26;18.30;57.50
45785;DHT22;31489;51.404;5.474;2022-08-07T04:43:53;18.30;57.50
45785;DHT22;31489;51.404;5.474;2022-08-07T04:49:26;18.30;58.30
45785;DHT22;31489;51.404;5.474;2022-08-07T04:54:50;18.30;58.10
45785;DHT22;31489;51.404;5.474;2022-08-07T04:57:33;18.30;58.30
45785;DHT22;31489;51.404;5.474;2022-08-07T05:00:11;18.30;58.50
45785;DHT22;31489;51.404;5.474;2022-08-07T05:03:03;18.30;58.40
45785;DHT22;31489;51.404;5.474;2022-08-07T05:05:36;18.30;58.80
45785;DHT22;31489;51.404;5.474;2022-08-07T05:11:24;18.20;58.90
45785;DHT22;31489;51.404;5.474;2022-08-07T05:14:07;18.30;58.90
45785;DHT22;31489;51.404;5.474;2022-08-07T05:16:37;18.30;58.90
45785;DHT22;31489;51.404;5.474;2022-08-07T05:19:11;18.30;58.80
45785;DHT22;31489;51.404;5.474;2022-08-07T05:21:42;18.30;59.20
45785;DHT22;31489;51.404;5.474;2022-08-07T05:24:11;18.30;59.20
45785;DHT22;31489;51.404;5.474;2022-08-07T05:26:38;18.30;59.10
45785;DHT22;31489;51.404;5.474;2022-08-07T05:29:06;18.40;59.10
45785;DHT22;31489;51.404;5.474;2022-08-07T05:31:35;18.40;59.40
45785;DHT22;31489;51.404;5.474;2022-08-07T05:34:05;18.40;59.30
45785;DHT22;31489;51.404;5.474;2022-08-07T05:36:33;18.40;59.50
45785;DHT22;31489;51.404;5.474;2022-08-07T05:38:59;18.50;59.10
45785;DHT22;31489;51.404;5.474;2022-08-07T05:41:26;18.50;59.30
45785;DHT22;31489;51.404;5.474;2022-08-07T05:43:54;18.50;59.40
45785;DHT22;31489;51.404;5.474;2022-08-07T05:46:21;18.50;59.60
45785;DHT22;31489;51.404;5.474;2022-08-07T05:48:49;18.60;59.50
45785;DHT22;31489;51.404;5.474;2022-08-07T05:51:16;18.60;59.50
45785;DHT22;31489;51.404;5.474;2022-08-07T05:53:42;18.60;59.60
45785;DHT22;31489;51.404;5.474;2022-08-07T05:56:08;18.70;59.50
45785;DHT22;31489;51.404;5.474;2022-08-07T05:58:36;18.70;59.60
45785;DHT22;31489;51.404;5.474;2022-08-07T06:01:05;18.70;59.50
45785;DHT22;31489;51.404;5.474;2022-08-07T06:03:32;18.80;59.60
45785;DHT22;31489;51.404;5.474;2022-08-07T06:05:59;18.80;59.60
45785;DHT22;31489;51.404;5.474;2022-08-07T06:08:26;18.80;59.60
45785;DHT22;31489;51.404;5.474;2022-08-07T06:10:53;18.80;59.40
45785;DHT22;31489;51.404;5.474;2022-08-07T06:13:19;18.90;59.40
45785;DHT22;31489;51.404;5.474;2022-08-07T06:15:50;18.90;58.80
45785;DHT22;31489;51.404;5.474;2022-08-07T06:18:16;19.00;59.10
45785;DHT22;31489;51.404;5.474;2022-08-07T06:20:43;19.00;58.70
45785;DHT22;31489;51.404;5.474;2022-08-07T06:23:11;19.10;58.60
45785;DHT22;31489;51.404;5.474;2022-08-07T06:25:39;19.10;59.10
45785;DHT22;31489;51.404;5.474;2022-08-07T06:28:08;19.10;58.80
45785;DHT22;31489;51.404;5.474;2022-08-07T06:30:36;19.20;59.00
45785;DHT22;31489;51.404;5.474;2022-08-07T06:33:03;19.30;58.60
45785;DHT22;31489;51.404;5.474;2022-08-07T06:35:29;19.30;58.70
45785;DHT22;31489;51.404;5.474;2022-08-07T06:37:55;19.30;58.50
45785;DHT22;31489;51.404;5.474;2022-08-07T06:40:23;19.40;58.60
45785;DHT22;31489;51.404;5.474;2022-08-07T06:42:50;19.40;58.80
45785;DHT22;31489;51.404;5.474;2022-08-07T06:45:19;19.40;58.60
45785;DHT22;31489;51.404;5.474;2022-08-07T06:47:47;19.50;58.30
45785;DHT22;31489;51.404;5.474;2022-08-07T06:50:13;19.50;58.40
45785;DHT22;31489;51.404;5.474;2022-08-07T06:52:42;19.60;58.40
45785;DHT22;31489;51.404;5.474;2022-08-07T06:55:19;19.60;58.60
45785;DHT22;31489;51.404;5.474;2022-08-07T06:57:47;19.60;58.00
45785;DHT22;31489;51.404;5.474;2022-08-07T07:00:14;19.70;57.90
45785;DHT22;31489;51.404;5.474;2022-08-07T07:02:43;19.80;57.40
45785;DHT22;31489;51.404;5.474;2022-08-07T07:05:09;19.70;57.30
45785;DHT22;31489;51.404;5.474;2022-08-07T07:07:36;19.80;57.30
45785;DHT22;31489;51.404;5.474;2022-08-07T07:10:02;19.90;57.20
45785;DHT22;31489;51.404;5.474;2022-08-07T07:15:27;20.00;57.00
45785;DHT22;31489;51.404;5.474;2022-08-07T07:20:51;20.10;57.30
45785;DHT22;31489;51.404;5.474;2022-08-07T07:23:18;20.10;57.20
45785;DHT22;31489;51.404;5.474;2022-08-07T07:25:46;20.20;57.00
45785;DHT22;31489;51.404;5.474;2022-08-07T07:28:24;20.30;56.90
45785;DHT22;31489;51.404;5.474;2022-08-07T07:30:56;20.30;56.70
45785;DHT22;31489;51.404;5.474;2022-08-07T07:33:25;20.40;56.70
45785;DHT22;31489;51.404;5.474;2022-08-07T07:35:53;20.40;57.00
45785;DHT22;31489;51.404;5.474;2022-08-07T07:38:22;20.40;55.70
45785;DHT22;31489;51.404;5.474;2022-08-07T07:40:52;20.50;56.00
45785;DHT22;31489;51.404;5.474;2022-08-07T07:43:20;20.60;55.80
45785;DHT22;31489;51.404;5.474;2022-08-07T07:45:47;20.60;55.10
45785;DHT22;31489;51.404;5.474;2022-08-07T07:48:16;20.70;54.90
45785;DHT22;31489;51.404;5.474;2022-08-07T07:50:46;20.80;55.00
45785;DHT22;31489;51.404;5.474;2022-08-07T07:53:15;20.80;54.70
45785;DHT22;31489;51.404;5.474;2022-08-07T07:55:43;20.90;54.70
45785;DHT22;31489;51.404;5.474;2022-08-07T07:58:09;21.00;54.40
45785;DHT22;31489;51.404;5.474;2022-08-07T08:00:36;21.00;54.10
45785;DHT22;31489;51.404;5.474;2022-08-07T08:03:07;21.10;53.90
45785;DHT22;31489;51.404;5.474;2022-08-07T08:05:35;21.10;54.30
45785;DHT22;31489;51.404;5.474;2022-08-07T08:08:02;21.20;54.20
45785;DHT22;31489;51.404;5.474;2022-08-07T08:10:29;21.20;53.90
45785;DHT22;31489;51.404;5.474;2022-08-07T08:12:57;21.20;53.50
45785;DHT22;31489;51.404;5.474;2022-08-07T08:15:24;21.30;53.00
45785;DHT22;31489;51.404;5.474;2022-08-07T08:17:51;21.40;53.20
45785;DHT22;31489;51.404;5.474;2022-08-07T08:20:19;21.40;52.90
45785;DHT22;31489;51.404;5.474;2022-08-07T08:22:46;21.50;53.50
45785;DHT22;31489;51.404;5.474;2022-08-07T08:25:33;21.50;53.00
45785;DHT22;31489;51.404;5.474;2022-08-07T08:28:24;21.60;52.90
45785;DHT22;31489;51.404;5.474;2022-08-07T08:30:55;21.70;53.80
45785;DHT22;31489;51.404;5.474;2022-08-07T08:33:23;21.70;53.40
45785;DHT22;31489;51.404;5.474;2022-08-07T08:35:52;21.80;52.70
45785;DHT22;31489;51.404;5.474;2022-08-07T08:38:31;21.90;52.80
45785;DHT22;31489;51.404;5.474;2022-08-07T08:44:07;22.00;52.80
45785;DHT22;31489;51.404;5.474;2022-08-07T08:46:55;22.00;52.10
45785;DHT22;31489;51.404;5.474;2022-08-07T08:49:46;22.20;51.60
45785;DHT22;31489;51.404;5.474;2022-08-07T08:52:22;22.20;51.60
45785;DHT22;31489;51.404;5.474;2022-08-07T08:57:32;22.30;53.10
45785;DHT22;31489;51.404;5.474;2022-08-07T09:00:07;22.40;52.00
45785;DHT22;31489;51.404;5.474;2022-08-07T09:13:45;22.80;51.90
45785;DHT22;31489;51.404;5.474;2022-08-07T09:22:14;23.00;49.70
45785;DHT22;31489;51.404;5.474;2022-08-07T09:30:58;23.20;49.50
45785;DHT22;31489;51.404;5.474;2022-08-07T09:34:26;23.30;49.50
45785;DHT22;31489;51.404;5.474;2022-08-07T09:36:37;23.30;48.90
45785;DHT22;31489;51.404;5.474;2022-08-07T09:53:33;23.60;48.70
45785;DHT22;31489;51.404;5.474;2022-08-07T09:59:00;23.70;48.00
45785;DHT22;31489;51.404;5.474;2022-08-07T10:01:57;23.80;48.80
45785;DHT22;31489;51.404;5.474;2022-08-07T10:13:10;24.10;46.50
45785;DHT22;31489;51.404;5.474;2022-08-07T10:30:26;24.60;46.40
45785;DHT22;31489;51.404;5.474;2022-08-07T10:44:12;25.10;47.40
45785;DHT22;31489;51.404;5.474;2022-08-07T10:49:51;25.50;46.50
45785;DHT22;31489;51.404;5.474;2022-08-07T10:52:43;25.70;45.30
45785;DHT22;31489;51.404;5.474;2022-08-07T10:55:16;25.90;47.10
45785;DHT22;31489;51.404;5.474;2022-08-07T10:58:33;26.10;45.20
45785;DHT22;31489;51.404;5.474;2022-08-07T11:01:16;26.30;47.00
45785;DHT22;31489;51.404;5.474;2022-08-07T11:03:50;26.70;46.50
45785;DHT22;31489;51.404;5.474;2022-08-07T11:06:25;27.20;46.20
45785;DHT22;31489;51.404;5.474;2022-08-07T11:11:36;28.10;44.00
45785;DHT22;31489;51.404;5.474;2022-08-07T11:14:12;28.50;43.60
45785;DHT22;31489;51.404;5.474;2022-08-07T11:16:57;28.80;42.90
45785;DHT22;31489;51.404;5.474;2022-08-07T11:22:35;29.40;41.70
45785;DHT22;31489;51.404;5.474;2022-08-07T11:28:00;30.00;42.10
45785;DHT22;31489;51.404;5.474;2022-08-07T11:30:57;30.30;41.80
45785;DHT22;31489;51.404;5.474;2022-08-07T11:33:53;30.60;39.80
45785;DHT22;31489;51.404;5.474;2022-08-07T11:36:53;30.80;38.30
45785;DHT22;31489;51.404;5.474;2022-08-07T11:39:43;31.00;40.50
45785;DHT22;31489;51.404;5.474;2022-08-07T11:44:54;31.40;37.80
45785;DHT22;31489;51.404;5.474;2022-08-07T11:50:36;31.60;37.70
45785;DHT22;31489;51.404;5.474;2022-08-07T11:56:32;31.80;35.80
45785;DHT22;31489;51.404;5.474;2022-08-07T12:01:58;31.80;36.90
45785;DHT22;31489;51.404;5.474;2022-08-07T12:04:53;31.90;34.00
45785;DHT22;31489;51.404;5.474;2022-08-07T12:10:03;31.80;35.30
45785;DHT22;31489;51.404;5.474;2022-08-07T12:12:39;31.70;34.80
45785;DHT22;31489;51.404;5.474;2022-08-07T12:15:52;31.70;34.70
45785;DHT22;31489;51.404;5.474;2022-08-07T12:26:33;31.50;35.10
45785;DHT22;31489;51.404;5.474;2022-08-07T12:29:20;31.50;35.70
45785;DHT22;31489;51.404;5.474;2022-08-07T12:31:57;31.50;35.70
45785;DHT22;31489;51.404;5.474;2022-08-07T12:34:27;31.50;36.20
45785;DHT22;31489;51.404;5.474;2022-08-07T12:36:55;31.60;36.00
45785;DHT22;31489;51.404;5.474;2022-08-07T12:39:23;31.70;35.60
45785;DHT22;31489;51.404;5.474;2022-08-07T12:41:53;31.70;35.00
45785;DHT22;31489;51.404;5.474;2022-08-07T12:44:20;31.80;35.30
45785;DHT22;31489;51.404;5.474;2022-08-07T12:47:08;31.90;35.80
45785;DHT22;31489;51.404;5.474;2022-08-07T12:50:05;32.00;35.40
45785;DHT22;31489;51.404;5.474;2022-08-07T12:52:55;32.00;35.10
45785;DHT22;31489;51.404;5.474;2022-08-07T12:55:27;32.00;34.80
45785;DHT22;31489;51.404;5.474;2022-08-07T12:57:57;32.00;35.10
45785;DHT22;31489;51.404;5.474;2022-08-07T13:03:30;32.10;34.50
45785;DHT22;31489;51.404;5.474;2022-08-07T13:06:20;32.10;34.30
45785;DHT22;31489;51.404;5.474;2022-08-07T13:11:52;32.20;34.30
45785;DHT22;31489;51.404;5.474;2022-08-07T13:17:08;32.40;34.50
45785;DHT22;31489;51.404;5.474;2022-08-07T13:20:43;32.40;32.60
45785;DHT22;31489;51.404;5.474;2022-08-07T13:25:13;32.40;33.50
45785;DHT22;31489;51.404;5.474;2022-08-07T13:27:50;32.50;33.60
45785;DHT22;31489;51.404;5.474;2022-08-07T13:30:17;32.50;32.00
45785;DHT22;31489;51.404;5.474;2022-08-07T13:33:06;32.50;33.20
45785;DHT22;31489;51.404;5.474;2022-08-07T13:35:45;32.60;33.50
45785;DHT22;31489;51.404;5.474;2022-08-07T13:39:42;32.60;33.00
45785;DHT22;31489;51.404;5.474;2022-08-07T13:41:43;32.70;34.00
45785;DHT22;31489;51.404;5.474;2022-08-07T13:44:10;32.70;32.80
45785;DHT22;31489;51.404;5.474;2022-08-07T13:46:41;32.70;33.20
45785;DHT22;31489;51.404;5.474;2022-08-07T13:49:15;32.80;32.80
45785;DHT22;31489;51.404;5.474;2022-08-07T13:51:42;32.90;32.70
45785;DHT22;31489;51.404;5.474;2022-08-07T13:54:12;32.90;33.80
45785;DHT22;31489;51.404;5.474;2022-08-07T13:56:39;33.00;33.40
45785;DHT22;31489;51.404;5.474;2022-08-07T13:59:16;33.00;32.80
45785;DHT22;31489;51.404;5.474;2022-08-07T14:01:49;33.10;32.20
45785;DHT22;31489;51.404;5.474;2022-08-07T14:04:16;33.20;31.60
45785;DHT22;31489;51.404;5.474;2022-08-07T14:06:47;33.30;32.60
45785;DHT22;31489;51.404;5.474;2022-08-07T14:09:24;33.30;32.60
45785;DHT22;31489;51.404;5.474;2022-08-07T14:12:01;33.40;32.50
45785;DHT22;31489;51.404;5.474;2022-08-07T14:14:40;33.50;31.80
45785;DHT22;31489;51.404;5.474;2022-08-07T14:17:09;33.50;31.50
45785;DHT22;31489;51.404;5.474;2022-08-07T14:19:47;33.60;32.20
45785;DHT22;31489;51.404;5.474;2022-08-07T14:22:21;33.60;31.10
45785;DHT22;31489;51.404;5.474;2022-08-07T14:24:51;33.60;31.60
45785;DHT22;31489;51.404;5.474;2022-08-07T14:27:44;33.60;31.00
45785;DHT22;31489;51.404;5.474;2022-08-07T14:30:12;33.60;31.60
45785;DHT22;31489;51.404;5.474;2022-08-07T14:32:56;33.60;31.20
45785;DHT22;31489;51.404;5.474;2022-08-07T14:35:28;33.60;31.30
45785;DHT22;31489;51.404;5.474;2022-08-07T14:37:56;33.60;30.80
45785;DHT22;31489;51.404;5.474;2022-08-07T14:40:24;33.60;31.40
45785;DHT22;31489;51.404;5.474;2022-08-07T14:43:01;33.50;30.30
45785;DHT22;31489;51.404;5.474;2022-08-07T14:45:49;33.50;31.30
45785;DHT22;31489;51.404;5.474;2022-08-07T14:48:21;33.40;30.80
45785;DHT22;31489;51.404;5.474;2022-08-07T14:50:53;33.40;30.50
45785;DHT22;31489;51.404;5.474;2022-08-07T14:53:21;33.30;30.30
45785;DHT22;31489;51.404;5.474;2022-08-07T14:55:48;33.30;31.10
45785;DHT22;31489;51.404;5.474;2022-08-07T14:58:16;33.30;31.40
45785;DHT22;31489;51.404;5.474;2022-08-07T15:00:49;33.20;31.20
45785;DHT22;31489;51.404;5.474;2022-08-07T15:03:24;33.20;31.60
45785;DHT22;31489;51.404;5.474;2022-08-07T15:05:51;33.10;31.40
45785;DHT22;31489;51.404;5.474;2022-08-07T15:08:28;33.10;31.70
45785;DHT22;31489;51.404;5.474;2022-08-07T15:11:10;33.00;31.40
45785;DHT22;31489;51.404;5.474;2022-08-07T15:13:50;33.00;31.70
45785;DHT22;31489;51.404;5.474;2022-08-07T15:16:17;33.00;31.20
45785;DHT22;31489;51.404;5.474;2022-08-07T15:18:46;32.90;31.70
45785;DHT22;31489;51.404;5.474;2022-08-07T15:21:25;32.90;31.60
45785;DHT22;31489;51.404;5.474;2022-08-07T15:23:56;32.90;31.50
45785;DHT22;31489;51.404;5.474;2022-08-07T15:26:39;32.80;31.40
45785;DHT22;31489;51.404;5.474;2022-08-07T15:29:07;32.80;30.90
45785;DHT22;31489;51.404;5.474;2022-08-07T15:31:35;32.70;30.30
45785;DHT22;31489;51.404;5.474;2022-08-07T15:34:02;32.70;30.10
45785;DHT22;31489;51.404;5.474;2022-08-07T15:36:31;32.70;31.00
45785;DHT22;31489;51.404;5.474;2022-08-07T15:39:04;32.60;31.90
45785;DHT22;31489;51.404;5.474;2022-08-07T15:41:34;32.50;31.40
45785;DHT22;31489;51.404;5.474;2022-08-07T15:44:06;32.40;31.80
45785;DHT22;31489;51.404;5.474;2022-08-07T15:46:33;32.40;31.50
45785;DHT22;31489;51.404;5.474;2022-08-07T15:49:02;32.30;31.50
45785;DHT22;31489;51.404;5.474;2022-08-07T15:51:33;32.30;32.00
45785;DHT22;31489;51.404;5.474;2022-08-07T15:54:01;32.20;30.20
45785;DHT22;31489;51.404;5.474;2022-08-07T15:56:35;32.10;30.80
45785;DHT22;31489;51.404;5.474;2022-08-07T15:59:04;32.10;30.00
45785;DHT22;31489;51.404;5.474;2022-08-07T16:01:34;32.00;30.80
45785;DHT22;31489;51.404;5.474;2022-08-07T16:04:04;31.90;31.00
45785;DHT22;31489;51.404;5.474;2022-08-07T16:06:37;31.90;31.70
45785;DHT22;31489;51.404;5.474;2022-08-07T16:09:11;31.70;31.60
45785;DHT22;31489;51.404;5.474;2022-08-07T16:14:56;31.70;31.00
45785;DHT22;31489;51.404;5.474;2022-08-07T16:17:27;31.60;32.00
45785;DHT22;31489;51.404;5.474;2022-08-07T16:31:38;31.60;31.50
45785;DHT22;31489;51.404;5.474;2022-08-07T16:34:12;31.60;31.60
45785;DHT22;31489;51.404;5.474;2022-08-07T16:45:33;31.50;31.70
45785;DHT22;31489;51.404;5.474;2022-08-07T16:57:00;31.40;31.10
45785;DHT22;31489;51.404;5.474;2022-08-07T16:59:07;31.30;31.60
45785;DHT22;31489;51.404;5.474;2022-08-07T17:06:56;31.10;31.90
45785;DHT22;31489;51.404;5.474;2022-08-07T17:12:18;31.00;32.10
45785;DHT22;31489;51.404;5.474;2022-08-07T17:14:53;30.90;32.20
45785;DHT22;31489;51.404;5.474;2022-08-07T17:20:31;30.90;32.40
45785;DHT22;31489;51.404;5.474;2022-08-07T17:23:13;30.70;32.50
45785;DHT22;31489;51.404;5.474;2022-08-07T17:28:36;30.70;33.10
45785;DHT22;31489;51.404;5.474;2022-08-07T17:31:21;30.70;32.80
45785;DHT22;31489;51.404;5.474;2022-08-07T17:33:57;30.60;33.20
45785;DHT22;31489;51.404;5.474;2022-08-07T17:36:29;30.60;33.20
45785;DHT22;31489;51.404;5.474;2022-08-07T17:39:05;30.50;33.50
45785;DHT22;31489;51.404;5.474;2022-08-07T17:44:27;30.50;33.90
45785;DHT22;31489;51.404;5.474;2022-08-07T17:49:47;30.30;34.00
45785;DHT22;31489;51.404;5.474;2022-08-07T17:52:18;30.30;34.10
45785;DHT22;31489;51.404;5.474;2022-08-07T17:54:49;30.30;34.30
45785;DHT22;31489;51.404;5.474;2022-08-07T18:00:25;30.20;34.50
45785;DHT22;31489;51.404;5.474;2022-08-07T18:02:53;30.10;34.60
45785;DHT22;31489;51.404;5.474;2022-08-07T18:08:12;30.00;34.70
45785;DHT22;31489;51.404;5.474;2022-08-07T18:10:51;29.90;34.40
45785;DHT22;31489;51.404;5.474;2022-08-07T18:13:47;29.80;34.60
45785;DHT22;31489;51.404;5.474;2022-08-07T18:18:57;29.60;34.40
45785;DHT22;31489;51.404;5.474;2022-08-07T18:21:41;29.50;34.30
45785;DHT22;31489;51.404;5.474;2022-08-07T18:24:46;29.40;34.70
45785;DHT22;31489;51.404;5.474;2022-08-07T18:30:10;29.30;34.30
45785;DHT22;31489;51.404;5.474;2022-08-07T18:38:25;29.20;34.90
45785;DHT22;31489;51.404;5.474;2022-08-07T18:41:24;29.00;35.20
45785;DHT22;31489;51.404;5.474;2022-08-07T18:44:07;28.90;35.00
45785;DHT22;31489;51.404;5.474;2022-08-07T18:49:22;28.80;35.40
45785;DHT22;31489;51.404;5.474;2022-08-07T18:54:47;28.60;36.30
45785;DHT22;31489;51.404;5.474;2022-08-07T19:00:10;28.50;35.90
45785;DHT22;31489;51.404;5.474;2022-08-07T19:03:04;28.40;36.60
45785;DHT22;31489;51.404;5.474;2022-08-07T19:05:36;28.40;37.60
45785;DHT22;31489;51.404;5.474;2022-08-07T19:08:34;28.30;38.00
45785;DHT22;31489;51.404;5.474;2022-08-07T19:11:15;28.20;38.20
45785;DHT22;31489;51.404;5.474;2022-08-07T19:16:29;28.10;38.10
45785;DHT22;31489;51.404;5.474;2022-08-07T19:24:46;27.80;38.60
45785;DHT22;31489;51.404;5.474;2022-08-07T19:27:16;27.70;38.00
45785;DHT22;31489;51.404;5.474;2022-08-07T19:29:51;27.60;38.30
45785;DHT22;31489;51.404;5.474;2022-08-07T19:32:22;27.60;38.80
45785;DHT22;31489;51.404;5.474;2022-08-07T19:35:16;27.50;37.90
45785;DHT22;31489;51.404;5.474;2022-08-07T19:37:46;27.40;38.10
45785;DHT22;31489;51.404;5.474;2022-08-07T19:40:17;27.30;38.50
45785;DHT22;31489;51.404;5.474;2022-08-07T19:42:44;27.30;38.50
45785;DHT22;31489;51.404;5.474;2022-08-07T19:45:16;27.30;38.70
45785;DHT22;31489;51.404;5.474;2022-08-07T19:47:48;27.20;39.20